Time;durP1;ratioP1;P1;durP2;ratioP2;P2;SDS_P1;SDS_P2;PMS_P1;PMS_P2;Temp;Humidity;BMP_temperature;BMP_pressure;BME280_temperature;BME280_humidity;BME280_pressure;Samples;Min_cycle;Max_cycle;Signal;HPM_P1;HPM_P2
2022/04/25 00:00:14;;;;;;;;;;;;;;;21.09;41.42;100759.22;5118333;27;19919;-88
2022/04/25 00:02:40;;;;;;;;;;;;;;;21.08;40.96;100760.34;5137905;27;19915;-88
2022/04/25 00:05:06;;;;;;;;;;;;;;;21.08;41.20;100756.78;5138656;27;20374;-88
2022/04/25 00:07:31;;;;;;;;;;;;;;;21.07;41.08;100758.72;5128704;27;19919;-88
2022/04/25 00:09:57;;;;;;;;;;;;;;;21.07;41.10;100758.72;5139336;27;19915;-88
2022/04/25 00:12:22;;;;;;;;;;;;;;;21.07;41.29;100755.16;5118959;27;20356;-88
2022/04/25 00:14:50;;;;;;;;;;;;;;;21.07;41.20;100757.91;5131384;27;20010;-88
2022/04/25 00:17:18;;;;;;;;;;;;;;;21.07;41.16;100757.91;5151528;27;19923;-88
2022/04/25 00:19:46;;;;;;;;;;;;;;;21.06;41.15;100765.31;5117313;27;19923;-89
2022/04/25 00:22:18;;;;;;;;;;;;;;;21.05;41.25;100757.41;5118211;27;19920;-89
2022/04/25 00:24:44;;;;;;;;;;;;;;;21.04;41.28;100764.84;5153233;27;20013;-89
2022/04/25 00:27:12;;;;;;;;;;;;;;;21.04;41.38;100766.75;5127249;27;19970;-88
2022/04/25 00:29:38;;;;;;;;;;;;;;;21.04;41.23;100766.75;5118499;27;19955;-92
2022/04/25 00:32:07;;;;;;;;;;;;;;;21.03;41.19;100760.47;5118361;27;19923;-89
2022/04/25 00:34:33;;;;;;;;;;;;;;;21.03;40.98;100762.41;5118368;28;19916;-88
2022/04/25 00:37:01;;;;;;;;;;;;;;;21.02;41.42;100758.84;5118701;28;19919;-88
2022/04/25 00:39:27;;;;;;;;;;;;;;;21.02;41.29;100758.84;5117271;28;19921;-88
2022/04/25 00:41:55;;;;;;;;;;;;;;;21.02;41.09;100758.84;5136444;28;19919;-88
2022/04/25 00:44:20;;;;;;;;;;;;;;;21.00;41.25;100752.84;5120403;27;19916;-88
2022/04/25 00:46:48;;;;;;;;;;;;;;;21.01;41.38;100753.66;5125447;28;20412;-88
2022/04/25 00:49:14;;;;;;;;;;;;;;;21.00;41.36;100744.63;5109818;28;20007;-90
2022/04/25 00:51:39;;;;;;;;;;;;;;;21.01;41.39;100753.66;5097879;28;20378;-90
2022/04/25 00:54:05;;;;;;;;;;;;;;;21.00;41.38;100754.78;5097853;28;19916;-89
2022/04/25 00:56:35;;;;;;;;;;;;;;;20.99;41.07;100750.41;5115706;28;20374;-88
2022/04/25 00:59:01;;;;;;;;;;;;;;;20.99;41.29;100753.16;5097386;28;19918;-87
2022/04/25 01:01:34;;;;;;;;;;;;;;;20.98;41.35;100752.34;5116556;28;19916;-89
2022/04/25 01:03:59;;;;;;;;;;;;;;;20.98;41.15;100751.53;5117496;28;20515;-89
2022/04/25 01:06:25;;;;;;;;;;;;;;;20.97;41.18;100756.22;5118278;28;19922;-89
2022/04/25 01:08:52;;;;;;;;;;;;;;;20.97;41.33;100756.22;5118517;28;19922;-89
2022/04/25 01:11:18;;;;;;;;;;;;;;;20.97;41.27;100753.47;5120446;28;19920;-89
2022/04/25 01:13:46;;;;;;;;;;;;;;;20.96;41.16;100755.44;5125437;27;19915;-89
2022/04/25 01:16:11;;;;;;;;;;;;;;;20.95;41.35;100756.53;5121679;27;19953;-89
2022/04/25 01:18:36;;;;;;;;;;;;;;;20.95;41.42;100756.53;5139050;27;19915;-89
2022/04/25 01:21:02;;;;;;;;;;;;;;;20.94;41.10;100757.66;5121563;27;19919;-89
2022/04/25 01:28:58;;;;;;;;;;;;;;;20.94;41.29;100751.34;5161916;27;20071;-89
2022/04/25 01:31:23;;;;;;;;;;;;;;;20.92;41.32;100753.63;5164751;27;20346;-89
2022/04/25 01:33:49;;;;;;;;;;;;;;;20.92;41.22;100750.88;5150976;27;20010;-89
2022/04/25 01:36:15;;;;;;;;;;;;;;;20.93;41.29;100755.22;5122488;27;20478;-89
2022/04/25 01:38:40;;;;;;;;;;;;;;;20.91;41.13;100757.47;5121493;27;19916;-89
2022/04/25 01:41:06;;;;;;;;;;;;;;;20.91;41.31;100752.78;5111799;28;20367;-89
2022/04/25 01:43:35;;;;;;;;;;;;;;;20.91;41.25;100751.97;5115066;28;20414;-89
2022/04/25 01:46:00;;;;;;;;;;;;;;;20.90;41.42;100755.84;5151143;27;19919;-88
2022/04/25 01:48:31;;;;;;;;;;;;;;;20.89;41.48;100757.78;5104330;27;19940;-90
2022/04/25 01:50:57;;;;;;;;;;;;;;;20.88;41.30;100760.84;5105742;27;19963;-89
2022/04/25 01:53:22;;;;;;;;;;;;;;;20.88;41.38;100763.59;5121271;27;19927;-89
2022/04/25 01:55:47;;;;;;;;;;;;;;;20.88;41.12;100760.84;5138867;27;19919;-88
2022/04/25 01:58:24;;;;;;;;;;;;;;;20.87;41.45;100754.53;5120773;27;19920;-90
2022/04/25 02:00:49;;;;;;;;;;;;;;;20.88;41.11;100769.06;5106418;27;19926;-89
2022/04/25 02:03:14;;;;;;;;;;;;;;;20.87;41.46;100753.75;5128933;27;20294;-89
2022/04/25 02:05:40;;;;;;;;;;;;;;;20.86;41.38;100750.16;5138113;27;19975;-90
2022/04/25 02:08:07;;;;;;;;;;;;;;;20.87;41.38;100764.72;5122095;27;19915;-88
2022/04/25 02:10:33;;;;;;;;;;;;;;;20.86;41.27;100754.84;5141975;27;19919;-88
2022/04/25 02:12:59;;;;;;;;;;;;;;;20.86;41.26;100763.88;5147015;27;19963;-89
2022/04/25 02:15:24;;;;;;;;;;;;;;;20.85;41.22;100751.28;5122030;27;20006;-89
2022/04/25 02:17:50;;;;;;;;;;;;;;;20.85;41.34;100753.22;5143559;27;19960;-90
2022/04/25 02:20:15;;;;;;;;;;;;;;;20.85;41.45;100756.78;5121077;27;19916;-89
2022/04/25 02:22:41;;;;;;;;;;;;;;;20.83;41.42;100750.78;5125741;27;19922;-89
2022/04/25 02:25:06;;;;;;;;;;;;;;;20.83;41.17;100752.72;5102982;27;20401;-89
2022/04/25 02:27:32;;;;;;;;;;;;;;;20.82;41.25;100749.16;5120721;27;19926;-89
2022/04/25 02:29:58;;;;;;;;;;;;;;;20.83;41.35;100749.97;5131749;27;19926;-89
2022/04/25 02:32:35;;;;;;;;;;;;;;;20.81;41.36;100754.97;5141194;27;19919;-89
2022/04/25 02:35:00;;;;;;;;;;;;;;;20.81;41.33;100758.50;5138943;27;19976;-89
2022/04/25 02:37:26;;;;;;;;;;;;;;;20.82;41.45;100748.38;5117443;28;19920;-89
2022/04/25 02:39:51;;;;;;;;;;;;;;;20.80;41.27;100754.16;5159152;27;19918;-89
2022/04/25 02:42:19;;;;;;;;;;;;;;;20.80;41.20;100747.88;5137591;27;19921;-88
2022/04/25 02:44:45;;;;;;;;;;;;;;;20.79;41.36;100754.47;5130159;27;19919;-91
2022/04/25 02:47:16;;;;;;;;;;;;;;;20.79;41.43;100746.22;5124852;28;19916;-89
2022/04/25 02:49:41;;;;;;;;;;;;;;;20.79;41.25;100746.22;5135087;27;19916;-90
2022/04/25 02:52:07;;;;;;;;;;;;;;;20.79;41.24;100754.47;5138285;27;20010;-89
2022/04/25 02:54:32;;;;;;;;;;;;;;;20.78;41.28;100753.66;5129849;27;19979;-89
2022/04/25 02:57:00;;;;;;;;;;;;;;;20.78;41.31;100750.09;5149310;27;19943;-90
2022/04/25 02:59:26;;;;;;;;;;;;;;;20.77;41.50;100749.28;5150092;27;20375;-90
2022/04/25 03:01:57;;;;;;;;;;;;;;;20.77;41.15;100752.03;5112507;28;19908;-91
2022/04/25 03:04:22;;;;;;;;;;;;;;;20.77;41.26;100743.81;5114341;28;19970;-89
2022/04/25 03:06:47;;;;;;;;;;;;;;;20.75;41.23;100738.63;5126138;27;19915;-90
2022/04/25 03:09:13;;;;;;;;;;;;;;;20.76;41.19;100750.41;5143410;27;19910;-89
2022/04/25 03:11:40;;;;;;;;;;;;;;;20.75;41.19;100751.53;5127004;27;19916;-90
2022/04/25 03:14:06;;;;;;;;;;;;;;;20.75;41.36;100752.34;5129335;27;19942;-89
2022/04/25 03:16:31;;;;;;;;;;;;;;;20.75;41.18;100755.09;5109102;27;20343;-89
2022/04/25 03:18:59;;;;;;;;;;;;;;;20.75;41.32;100746.03;5099764;28;20385;-89
2022/04/25 03:21:28;;;;;;;;;;;;;;;20.74;41.06;100748.00;5106035;28;19916;-89
2022/04/25 03:23:54;;;;;;;;;;;;;;;20.73;41.33;100746.34;5118293;27;19926;-89
2022/04/25 03:26:22;;;;;;;;;;;;;;;20.73;41.34;100743.59;5140045;27;19954;-89
2022/04/25 03:28:47;;;;;;;;;;;;;;;20.72;41.19;100744.72;5139413;27;19915;-89
2022/04/25 03:31:13;;;;;;;;;;;;;;;20.72;41.08;100744.72;5130491;27;19968;-89
2022/04/25 03:33:38;;;;;;;;;;;;;;;20.72;41.43;100747.47;5119416;28;19916;-89
2022/04/25 03:36:04;;;;;;;;;;;;;;;20.72;41.27;100744.72;5117543;28;19916;-89
2022/04/25 03:38:30;;;;;;;;;;;;;;;20.72;41.41;100752.16;5116845;28;20339;-89
2022/04/25 03:40:55;;;;;;;;;;;;;;;20.72;41.39;100750.22;5126157;27;19924;-89
2022/04/25 03:43:23;;;;;;;;;;;;;;;20.71;41.18;100750.53;5102960;27;19919;-89
2022/04/25 03:45:57;;;;;;;;;;;;;;;20.71;41.28;100747.78;5138376;27;19987;-89
2022/04/25 03:48:22;;;;;;;;;;;;;;;20.70;41.17;100749.72;5120350;27;19923;-89
2022/04/25 03:50:54;;;;;;;;;;;;;;;20.70;41.45;100751.66;5103267;27;19969;-90
2022/04/25 03:59:09;;;;;;;;;;;;;;;20.69;41.25;100761.03;5137704;27;19922;-89
2022/04/25 04:01:36;;;;;;;;;;;;;;;20.66;41.44;100756.97;5119433;27;19915;-90
2022/04/25 04:04:05;;;;;;;;;;;;;;;20.67;41.20;100769.56;5119829;27;19915;-90
2022/04/25 04:06:52;;;;;;;;;;;;;;;20.67;41.12;100772.31;5120927;27;19922;-90
2022/04/25 04:12:10;;;;;;;;;;;;;;;20.66;41.35;100775.34;5102714;28;19927;-90
2022/04/25 04:17:38;;;;;;;;;;;;;;;20.65;41.43;100788.25;5116883;28;20082;-90
2022/04/25 04:23:06;;;;;;;;;;;;;;;20.63;41.10;100782.25;5116539;28;19969;-90
2022/04/25 04:28:37;;;;;;;;;;;;;;;20.63;41.18;100790.50;5116996;28;19961;-91
2022/04/25 04:31:13;;;;;;;;;;;;;;;20.62;41.14;100791.63;5099148;28;20015;-91
2022/04/25 04:33:38;;;;;;;;;;;;;;;20.63;41.22;100786.94;5100878;28;19947;-92
2022/04/25 04:36:19;;;;;;;;;;;;;;;20.61;41.30;100784.50;5083229;28;19927;-88
2022/04/25 04:38:47;;;;;;;;;;;;;;;20.61;41.31;100787.25;5118414;27;19919;-93
2022/04/25 04:41:15;;;;;;;;;;;;;;;20.62;41.32;100790.81;5141909;27;19951;-91
2022/04/25 04:43:41;;;;;;;;;;;;;;;20.60;41.35;100791.13;5107153;28;19941;-91
2022/04/25 04:46:07;;;;;;;;;;;;;;;20.61;41.54;100792.72;5121870;28;20288;-91
2022/04/25 04:48:32;;;;;;;;;;;;;;;20.61;41.27;100789.19;5114776;28;20065;-92
2022/04/25 04:51:00;;;;;;;;;;;;;;;20.60;41.15;100788.38;5132345;27;20355;-92
2022/04/25 04:53:26;;;;;;;;;;;;;;;20.61;41.26;100792.72;5115578;28;19916;-91
2022/04/25 04:55:52;;;;;;;;;;;;;;;20.60;41.17;100790.31;5098236;28;20031;-91
2022/04/25 04:58:20;;;;;;;;;;;;;;;20.59;41.28;100795.00;5116283;28;19927;-90
2022/04/25 05:00:46;;;;;;;;;;;;;;;20.59;41.15;100792.25;5131288;27;19922;-90
2022/04/25 05:03:15;;;;;;;;;;;;;;;20.59;41.16;100794.16;5117614;28;19955;-91
2022/04/25 05:05:41;;;;;;;;;;;;;;;20.59;41.37;100803.22;5109070;28;19955;-92
2022/04/25 05:08:06;;;;;;;;;;;;;;;20.59;41.39;100803.22;5125201;27;19922;-91
2022/04/25 05:10:32;;;;;;;;;;;;;;;20.59;41.18;100811.47;5129133;27;19967;-91
2022/04/25 05:12:57;;;;;;;;;;;;;;;20.59;41.09;100807.88;5123823;27;19937;-91
2022/04/25 05:15:23;;;;;;;;;;;;;;;20.60;41.08;100806.78;5140687;27;19922;-90
2022/04/25 05:17:50;;;;;;;;;;;;;;;20.59;41.05;100818.88;5104244;27;19924;-90
2022/04/25 05:20:16;;;;;;;;;;;;;;;20.58;41.18;100823.53;5121702;27;19919;-90
2022/04/25 05:22:44;;;;;;;;;;;;;;;20.58;41.13;100825.47;5106141;28;19916;-91
2022/04/25 05:25:10;;;;;;;;;;;;;;;20.58;41.12;100818.06;5119553;27;19923;-90
2022/04/25 05:27:39;;;;;;;;;;;;;;;20.57;41.20;100826.63;5118582;27;19915;-96
2022/04/25 05:30:13;;;;;;;;;;;;;;;20.57;41.17;100824.69;5175566;27;19907;-92
2022/04/25 05:32:44;;;;;;;;;;;;;;;20.57;41.32;100818.38;5116978;22;19924;-96
2022/04/25 05:35:11;;;;;;;;;;;;;;;20.56;41.16;100823.03;5098383;28;19923;-84
2022/04/25 05:37:39;;;;;;;;;;;;;;;20.57;41.40;100830.16;5079729;28;19978;-95
2022/04/25 05:40:05;;;;;;;;;;;;;;;20.58;41.32;100829.03;5095887;28;19916;-91
2022/04/25 05:42:30;;;;;;;;;;;;;;;20.60;41.37;100835.03;5087641;28;20279;-86
2022/04/25 05:44:56;;;;;;;;;;;;;;;20.62;41.42;100838.28;5060339;28;19920;-88
2022/04/25 05:47:21;;;;;;;;;;;;;;;20.64;41.67;100838.00;5087560;28;20166;-88
2022/04/25 05:52:31;;;;;;;;;;;;;;;20.64;41.69;100848.97;5078238;28;19983;-89
2022/04/25 05:54:56;;;;;;;;;;;;;;;20.63;41.69;100845.38;5059836;28;19920;-87
2022/04/25 05:57:22;;;;;;;;;;;;;;;20.63;41.59;100859.13;5041365;28;20675;-88
2022/04/25 05:59:50;;;;;;;;;;;;;;;20.63;41.70;100859.13;5070312;28;19920;-88
2022/04/25 06:02:17;;;;;;;;;;;;;;;20.63;41.52;100850.88;5077236;28;19995;-88
2022/04/25 06:04:42;;;;;;;;;;;;;;;20.63;41.55;100858.31;5079662;28;19924;-87
2022/04/25 06:07:07;;;;;;;;;;;;;;;20.63;41.69;100861.06;5063463;28;20390;-88
2022/04/25 06:09:34;;;;;;;;;;;;;;;20.63;41.74;100864.59;5081812;28;20291;-88
2022/04/25 06:12:00;;;;;;;;;;;;;;;20.62;41.76;100865.72;5069274;28;19925;-87
2022/04/25 06:14:25;;;;;;;;;;;;;;;20.63;41.61;100869.28;5075844;28;20255;-87
2022/04/25 06:16:50;;;;;;;;;;;;;;;20.62;41.72;100870.41;5069697;28;19924;-87
2022/04/25 06:19:16;;;;;;;;;;;;;;;20.63;41.79;100869.28;5094607;28;19939;-88
2022/04/25 06:21:41;;;;;;;;;;;;;;;20.63;41.82;100872.03;5083928;28;20369;-83
2022/04/25 06:24:07;;;;;;;;;;;;;;;20.63;41.77;100872.03;5073686;28;20680;-87
2022/04/25 06:26:34;;;;;;;;;;;;;;;20.65;41.76;100883.53;5064494;28;20015;-90
2022/04/25 06:28:59;;;;;;;;;;;;;;;20.65;41.67;100881.59;5078775;28;19979;-90
2022/04/25 06:31:24;;;;;;;;;;;;;;;20.66;41.58;100885.97;5071932;28;20236;-88
2022/04/25 06:33:50;;;;;;;;;;;;;;;20.67;41.84;100884.03;5054042;28;19971;-88
2022/04/25 06:36:15;;;;;;;;;;;;;;;20.68;41.96;100882.91;5064648;28;19916;-86
2022/04/25 06:38:40;;;;;;;;;;;;;;;20.69;41.80;100887.28;5064380;28;20018;-86
2022/04/25 06:41:09;;;;;;;;;;;;;;;20.71;41.78;100885.84;5064113;28;20322;-85
2022/04/25 06:43:36;;;;;;;;;;;;;;;20.72;41.89;100881.19;5047760;28;19925;-86
2022/04/25 06:46:01;;;;;;;;;;;;;;;20.74;42.14;100889.91;5065640;28;19962;-81
2022/04/25 06:48:27;;;;;;;;;;;;;;;20.75;41.94;100886.84;5073330;28;19916;-82
2022/04/25 06:50:53;;;;;;;;;;;;;;;20.77;42.01;100891.25;5075561;28;19920;-85
2022/04/25 06:53:19;;;;;;;;;;;;;;;20.78;41.88;100896.41;5065279;28;20384;-82
2022/04/25 06:55:44;;;;;;;;;;;;;;;20.81;42.12;100900.47;5070239;28;19951;-83
2022/04/25 06:58:12;;;;;;;;;;;;;;;20.82;42.00;100893.88;5066468;28;19989;-85
2022/04/25 07:00:38;;;;;;;;;;;;;;;20.84;42.00;100895.19;5065934;28;19921;-82
2022/04/25 07:03:04;;;;;;;;;;;;;;;20.84;42.18;100891.59;5061402;28;19974;-82
2022/04/25 07:05:29;;;;;;;;;;;;;;;20.85;42.08;100893.25;5068499;28;20164;-81
2022/04/25 07:07:55;;;;;;;;;;;;;;;20.86;41.99;100897.59;5072714;28;19931;-82
2022/04/25 07:10:20;;;;;;;;;;;;;;;20.87;42.12;100900.06;5038889;28;20383;-78
2022/04/25 07:12:48;;;;;;;;;;;;;;;20.88;42.27;100893.44;5053033;28;19913;-90
2022/04/25 07:15:14;;;;;;;;;;;;;;;20.90;42.04;100898.63;5064862;28;20050;-77
2022/04/25 07:17:39;;;;;;;;;;;;;;;20.90;42.34;100893.94;5075363;28;20011;-79
2022/04/25 07:20:05;;;;;;;;;;;;;;;20.90;42.30;100898.63;5071190;28;19932;-76
2022/04/25 07:30:42;;;;;;;;;;;;;;;20.90;42.43;100907.66;5054376;28;19974;-81
2022/04/25 07:33:07;;;;;;;;;;;;;;;20.91;42.35;100911.22;5062028;28;20327;-79
2022/04/25 07:35:36;;;;;;;;;;;;;;;20.93;42.05;100914.47;5083816;28;19928;-78
2022/04/25 07:38:02;;;;;;;;;;;;;;;20.93;42.05;100909.00;5058893;28;19947;-80
2022/04/25 07:40:27;;;;;;;;;;;;;;;20.95;42.12;100912.25;5063781;28;19924;-82
2022/04/25 07:42:55;;;;;;;;;;;;;;;20.96;41.91;100916.59;5072334;28;19921;-78
2022/04/25 07:45:21;;;;;;;;;;;;;;;20.97;41.93;100915.50;5054702;28;19925;-77
2022/04/25 07:47:46;;;;;;;;;;;;;;;20.99;42.27;100923.41;5071027;28;19927;-78
2022/04/25 07:50:12;;;;;;;;;;;;;;;21.00;42.14;100934.09;5061902;28;19936;-84
2022/04/25 07:52:38;;;;;;;;;;;;;;;21.01;42.33;100921.97;5070024;28;20010;-78
2022/04/25 07:55:04;;;;;;;;;;;;;;;21.02;42.09;100920.06;5056822;28;19973;-80
2022/04/25 07:57:29;;;;;;;;;;;;;;;21.04;42.05;100928.78;5064726;28;20053;-79
2022/04/25 07:59:56;;;;;;;;;;;;;;;21.04;42.18;100926.88;5071299;28;20023;-79
2022/04/25 08:02:23;;;;;;;;;;;;;;;21.05;41.83;100928.50;5057075;28;20299;-81
2022/04/25 08:04:48;;;;;;;;;;;;;;;21.06;42.23;100932.84;5069518;28;20428;-78
2022/04/25 08:07:13;;;;;;;;;;;;;;;21.07;42.16;100937.25;5072641;28;20058;-84
2022/04/25 08:09:39;;;;;;;;;;;;;;;21.09;42.24;100939.66;5070406;28;20274;-79
2022/04/25 08:20:16;;;;;;;;;;;;;;;21.12;42.06;100947.31;5051195;28;19931;-84
2022/04/25 08:22:42;;;;;;;;;;;;;;;21.12;42.21;100945.38;5069363;28;20308;-80
2022/04/25 08:25:08;;;;;;;;;;;;;;;21.12;42.00;100953.59;5071926;28;19942;-78
2022/04/25 08:27:34;;;;;;;;;;;;;;;21.13;41.94;100957.16;5051459;28;20382;-78
2022/04/25 08:30:01;;;;;;;;;;;;;;;21.14;41.89;100956.88;5070054;28;20392;-77
2022/04/25 08:32:27;;;;;;;;;;;;;;;21.14;42.07;100962.34;5054012;28;19925;-76
2022/04/25 08:34:52;;;;;;;;;;;;;;;21.16;42.01;100967.53;5038008;28;19971;-76
2022/04/25 08:37:17;;;;;;;;;;;;;;;21.16;41.99;100959.28;5067682;28;19990;-78
2022/04/25 08:39:42;;;;;;;;;;;;;;;21.17;42.15;100966.41;5055072;28;19916;-75
2022/04/25 08:42:09;;;;;;;;;;;;;;;21.18;41.99;100968.03;5050641;28;19933;-77
2022/04/25 08:44:34;;;;;;;;;;;;;;;21.19;42.09;100975.13;5061449;28;20252;-76
2022/04/25 08:47:00;;;;;;;;;;;;;;;21.20;42.00;100973.22;5068682;28;19961;-75
2022/04/25 08:49:25;;;;;;;;;;;;;;;21.21;41.90;100980.34;5068674;28;20411;-76
2022/04/25 08:51:58;;;;;;;;;;;;;;;21.21;42.19;100966.59;5067634;28;19965;-76
2022/04/25 08:54:24;;;;;;;;;;;;;;;21.22;42.13;100979.19;5050929;28;19917;-76
2022/04/25 08:56:50;;;;;;;;;;;;;;;21.22;42.28;100980.03;5069636;28;19934;-75
2022/04/25 08:59:15;;;;;;;;;;;;;;;21.23;42.12;100983.59;5059302;28;19928;-76
2022/04/25 09:01:43;;;;;;;;;;;;;;;21.23;42.11;100987.16;5049336;28;20372;-75
2022/04/25 09:04:09;;;;;;;;;;;;;;;21.24;42.24;100988.75;5054821;28;19924;-75
2022/04/25 09:06:34;;;;;;;;;;;;;;;21.24;42.14;100991.50;5068436;28;19921;-79
2022/04/25 09:08:59;;;;;;;;;;;;;;;21.25;42.11;100993.16;5071276;28;19921;-75
2022/04/25 09:14:09;;;;;;;;;;;;;;;21.27;41.87;101006.56;5069900;28;19996;-76
2022/04/25 09:16:35;;;;;;;;;;;;;;;21.27;42.21;101004.66;5033972;28;19933;-75
2022/04/25 09:19:00;;;;;;;;;;;;;;;21.28;42.21;101003.53;5066856;28;19928;-75
2022/04/25 09:21:26;;;;;;;;;;;;;;;21.28;42.18;101003.53;5056961;28;19925;-81
2022/04/25 09:23:51;;;;;;;;;;;;;;;21.29;42.22;101015.31;5068921;28;19928;-75
2022/04/25 09:26:16;;;;;;;;;;;;;;;21.31;41.99;101015.81;5051808;28;19921;-78
2022/04/25 09:28:48;;;;;;;;;;;;;;;21.30;42.20;101012.28;5071910;28;20449;-77
2022/04/25 09:31:14;;;;;;;;;;;;;;;21.31;42.14;101018.56;5067687;28;19935;-83
2022/04/25 09:33:39;;;;;;;;;;;;;;;21.31;42.00;101019.38;5066362;28;19924;-76
2022/04/25 09:36:06;;;;;;;;;;;;;;;21.32;42.17;101011.97;5065859;28;19936;-77
2022/04/25 09:38:35;;;;;;;;;;;;;;;21.33;42.27;101016.34;5067114;28;19994;-77
2022/04/25 09:41:01;;;;;;;;;;;;;;;21.33;41.98;101017.16;5058460;28;19916;-80
2022/04/25 09:43:29;;;;;;;;;;;;;;;21.34;42.21;101016.03;5055594;28;19916;-77
2022/04/25 09:46:01;;;;;;;;;;;;;;;21.35;42.06;101025.09;5070386;28;19917;-79
2022/04/25 09:48:26;;;;;;;;;;;;;;;21.35;41.99;101025.91;5059066;28;20403;-78
2022/04/25 09:51:02;;;;;;;;;;;;;;;21.35;42.38;101031.41;5070302;28;19948;-80
2022/04/25 09:53:46;;;;;;;;;;;;;;;21.36;42.18;101024.75;5058250;28;19928;-78
2022/04/25 09:56:13;;;;;;;;;;;;;;;21.37;42.33;101031.09;5075028;28;19924;-81
2022/04/25 09:58:40;;;;;;;;;;;;;;;21.37;42.21;101036.59;5070750;28;19931;-81
2022/04/25 10:01:11;;;;;;;;;;;;;;;21.38;42.04;101033.56;5063377;28;19951;-80
2022/04/25 10:03:37;;;;;;;;;;;;;;;21.39;42.08;101039.84;5072295;28;19970;-86
2022/04/25 10:06:03;;;;;;;;;;;;;;;21.38;42.31;101033.56;5071009;28;19928;-79
2022/04/25 10:08:31;;;;;;;;;;;;;;;21.38;42.20;101033.56;5059690;28;19984;-79
2022/04/25 10:10:57;;;;;;;;;;;;;;;21.39;42.28;101037.94;5072375;28;20481;-77
2022/04/25 10:13:24;;;;;;;;;;;;;;;21.40;42.35;101038.75;5068422;28;19935;-80
2022/04/25 10:15:50;;;;;;;;;;;;;;;21.41;41.97;101040.38;5058803;28;19920;-80
2022/04/25 10:18:15;;;;;;;;;;;;;;;21.42;42.12;101041.16;5061859;28;19943;-78
2022/04/25 10:20:42;;;;;;;;;;;;;;;21.43;42.14;101037.31;5073287;28;20381;-81
2022/04/25 10:23:09;;;;;;;;;;;;;;;21.44;42.12;101038.94;5073352;28;19925;-81
2022/04/25 10:25:36;;;;;;;;;;;;;;;21.44;42.02;101042.50;5073014;28;19928;-84
2022/04/25 10:28:05;;;;;;;;;;;;;;;21.45;42.21;101046.88;5074094;28;19920;-78
2022/04/25 10:30:34;;;;;;;;;;;;;;;21.45;42.06;101046.06;5073532;28;20372;-79
2022/04/25 10:33:20;;;;;;;;;;;;;;;21.45;42.32;101046.88;5053921;28;19974;-79
2022/04/25 10:35:46;;;;;;;;;;;;;;;21.46;42.07;101048.50;5049836;28;19925;-78
2022/04/25 10:38:47;;;;;;;;;;;;;;;21.47;42.31;101050.13;5054013;28;19917;-79
2022/04/25 10:44:10;;;;;;;;;;;;;;;21.47;42.36;101057.53;5052231;28;19967;-79
2022/04/25 10:46:55;;;;;;;;;;;;;;;21.47;42.14;101060.28;5071715;28;20357;-80
2022/04/25 10:49:28;;;;;;;;;;;;;;;21.47;42.00;101057.53;5053270;28;19916;-79
2022/04/25 10:51:53;;;;;;;;;;;;;;;21.49;42.29;101067.09;5052166;28;20023;-78
2022/04/25 10:54:23;;;;;;;;;;;;;;;21.49;42.16;101064.34;5054979;28;20376;-80
2022/04/25 10:57:07;;;;;;;;;;;;;;;21.49;42.09;101069.84;5052475;28;19925;-78
2022/04/25 10:59:32;;;;;;;;;;;;;;;21.49;42.31;101067.09;5066743;28;20331;-78
2022/04/25 11:01:57;;;;;;;;;;;;;;;21.49;42.24;101067.09;5055753;28;19927;-80
2022/04/25 11:04:23;;;;;;;;;;;;;;;21.49;42.29;101072.59;5054203;28;20077;-77
2022/04/25 11:07:08;;;;;;;;;;;;;;;21.51;42.10;101075.06;5050844;28;19931;-76
2022/04/25 11:09:48;;;;;;;;;;;;;;;21.51;42.30;101077.81;5048025;28;19925;-77
2022/04/25 11:12:14;;;;;;;;;;;;;;;21.50;42.42;101074.25;5049452;28;20011;-81
2022/04/25 11:14:56;;;;;;;;;;;;;;;21.51;42.24;101083.31;5048369;28;20004;-78
2022/04/25 11:17:21;;;;;;;;;;;;;;;21.49;42.10;101075.34;5049679;28;19927;-80
2022/04/25 11:19:48;;;;;;;;;;;;;;;21.48;42.22;101083.94;5047774;28;20023;-78
2022/04/25 11:22:29;;;;;;;;;;;;;;;21.46;42.18;101081.47;5046939;28;20004;-79
2022/04/25 11:24:54;;;;;;;;;;;;;;;21.44;42.05;101089.22;5047987;28;19917;-78
2022/04/25 11:27:21;;;;;;;;;;;;;;;21.43;42.12;101089.53;5050109;28;19925;-79
2022/04/25 11:30:07;;;;;;;;;;;;;;;21.42;42.35;101093.38;5047752;28;19925;-81
2022/04/25 11:32:40;;;;;;;;;;;;;;;21.40;42.26;101096.47;5061590;28;19925;-79
2022/04/25 11:35:06;;;;;;;;;;;;;;;21.40;42.17;101096.47;5070549;28;19917;-81
2022/04/25 11:37:32;;;;;;;;;;;;;;;21.41;42.02;101100.00;5071392;28;19920;-84
2022/04/25 11:40:02;;;;;;;;;;;;;;;21.42;42.34;101099.72;5072810;28;20384;-80
2022/04/25 11:42:29;;;;;;;;;;;;;;;21.43;42.26;101097.78;5068074;28;20303;-81
2022/04/25 11:44:55;;;;;;;;;;;;;;;21.44;42.19;101110.38;5072152;28;19925;-79
2022/04/25 11:47:21;;;;;;;;;;;;;;;21.44;41.98;101108.44;5069325;28;20237;-85
2022/04/25 11:49:46;;;;;;;;;;;;;;;21.45;41.90;101112.84;5067771;28;19916;-79
2022/04/25 11:52:20;;;;;;;;;;;;;;;21.46;42.20;101111.72;5038960;28;19997;-81
2022/04/25 11:54:45;;;;;;;;;;;;;;;21.47;42.42;101109.75;5068698;28;19924;-79
2022/04/25 11:57:10;;;;;;;;;;;;;;;21.47;41.91;101112.50;5070564;28;19925;-86
2022/04/25 11:59:38;;;;;;;;;;;;;;;21.48;42.02;101105.91;5064158;28;19931;-79
2022/04/25 12:02:03;;;;;;;;;;;;;;;21.50;42.35;101114.66;5075418;28;19924;-77
2022/04/25 12:04:29;;;;;;;;;;;;;;;21.50;42.01;101114.66;5058006;28;19935;-83
2022/04/25 12:07:01;;;;;;;;;;;;;;;21.51;41.98;101119.84;5071088;28;20606;-80
2022/04/25 12:17:47;;;;;;;;;;;;;;;21.54;41.95;101121.16;5074937;28;20449;-78
2022/04/25 12:20:14;;;;;;;;;;;;;;;21.54;41.94;101119.22;5071610;28;20376;-80
2022/04/25 12:22:49;;;;;;;;;;;;;;;21.55;42.19;101129.13;5068454;28;20003;-83
2022/04/25 12:25:16;;;;;;;;;;;;;;;21.56;42.06;101118.94;5070262;28;19960;-80
2022/04/25 12:27:59;;;;;;;;;;;;;;;21.56;41.93;101116.97;5068853;28;20332;-83
2022/04/25 12:30:25;;;;;;;;;;;;;;;21.56;42.29;101119.72;5071363;28;19916;-78
2022/04/25 12:33:04;;;;;;;;;;;;;;;21.58;42.14;101117.50;5059635;28;20014;-79
2022/04/25 12:35:29;;;;;;;;;;;;;;;21.59;42.18;101118.31;5071087;28;19920;-79
2022/04/25 12:37:55;;;;;;;;;;;;;;;21.60;42.22;101120.75;5069267;28;19921;-79
2022/04/25 12:40:20;;;;;;;;;;;;;;;21.61;42.02;101119.63;5055837;28;19928;-79
2022/04/25 12:42:46;;;;;;;;;;;;;;;21.61;42.05;101125.13;5069042;28;19931;-79
2022/04/25 12:45:14;;;;;;;;;;;;;;;21.63;42.30;101115.78;5072204;28;20336;-78
2022/04/25 12:47:44;;;;;;;;;;;;;;;21.63;42.03;101124.03;5054316;28;19929;-78
2022/04/25 12:50:11;;;;;;;;;;;;;;;21.64;42.33;101123.69;5075471;28;19943;-87
2022/04/25 12:52:49;;;;;;;;;;;;;;;21.65;42.10;101119.03;5058508;28;19928;-80
2022/04/25 12:55:17;;;;;;;;;;;;;;;21.65;42.15;101122.59;5052358;28;19928;-80
2022/04/25 12:57:51;;;;;;;;;;;;;;;21.66;42.20;101128.91;5070200;28;19927;-81
2022/04/25 13:00:16;;;;;;;;;;;;;;;21.65;42.02;101121.78;5051758;28;19946;-79
2022/04/25 13:02:42;;;;;;;;;;;;;;;21.63;42.08;101124.03;5056756;28;20453;-80
2022/04/25 13:05:08;;;;;;;;;;;;;;;21.64;42.21;101125.63;5056957;28;19977;-80
2022/04/25 13:07:33;;;;;;;;;;;;;;;21.64;42.17;101131.94;5066906;28;20023;-79
2022/04/25 13:09:59;;;;;;;;;;;;;;;21.64;42.02;101131.94;5074759;28;20014;-80
2022/04/25 13:12:31;;;;;;;;;;;;;;;21.66;42.20;101123.41;5068728;28;19925;-80
2022/04/25 13:14:57;;;;;;;;;;;;;;;21.66;41.94;101124.19;5051811;28;19989;-80
2022/04/25 13:17:22;;;;;;;;;;;;;;;21.66;42.06;101124.19;5067857;28;19929;-81
2022/04/25 13:19:47;;;;;;;;;;;;;;;21.66;42.09;101129.69;5032914;28;20289;-77
2022/04/25 13:22:12;;;;;;;;;;;;;;;21.68;41.96;101126.66;5032217;28;19984;-79
2022/04/25 13:24:38;;;;;;;;;;;;;;;21.67;41.95;101128.59;5072344;28;19969;-85
2022/04/25 13:27:06;;;;;;;;;;;;;;;21.68;42.21;101129.41;5071368;28;20292;-85
2022/04/25 13:29:31;;;;;;;;;;;;;;;21.69;42.21;101134.56;5057878;28;19987;-80
2022/04/25 13:32:00;;;;;;;;;;;;;;;21.69;42.17;101134.56;5070828;28;20052;-80